CheckWX is a tool to help pilots better visualize weather data.  It is not intended as a substitute for an official pre-flight weather briefing.

01:13:38 UTC

LDZA METAR
Zagreb Airport
Zagreb, Croatia
Current

14 mins ago

LDZA 280100Z 24004KT CAVOK 09/07 Q1026 NOSIG
Observed
May-28 @ 01:00 UTC
Wind
  • 240° at 4 KTS
Visibility
10,000+ meters
Flight Rules
VFR
Cloud Levels
  • Clear skies
Temperature
C / 48°F
Dewpoint
C / 45°F
Humidity
87%
Altimeter
30.3" Hg
Pressure
1025.92 hPa
Previous

44 mins ago

LDZA 280030Z 24005KT CAVOK 09/07 Q1026 NOSIG
Observed
May-28 @ 00:30 UTC
Wind
  • 240° at 5 KTS
Visibility
10,000+ meters
Flight Rules
VFR
Cloud Levels
  • Clear skies
Temperature
C / 48°F
Dewpoint
C / 45°F
Humidity
87%
Altimeter
30.3" Hg
Pressure
1025.92 hPa
Previous

1 hour ago

LDZA 280000Z 24004KT CAVOK 09/07 Q1026 NOSIG
Observed
May-28 @ 00:00 UTC
Wind
  • 240° at 4 KTS
Visibility
10,000+ meters
Flight Rules
VFR
Cloud Levels
  • Clear skies
Temperature
C / 48°F
Dewpoint
C / 45°F
Humidity
87%
Altimeter
30.3" Hg
Pressure
1025.92 hPa